createdAt,value
2024-05-09T00:03:02.945Z,10.90
2024-05-09T00:06:05.944Z,10.74
2024-05-09T00:09:11.190Z,10.65
2024-05-09T00:12:13.896Z,10.68
2024-05-09T00:15:16.560Z,10.70
2024-05-09T00:18:19.068Z,10.64
2024-05-09T00:21:21.624Z,10.55
2024-05-09T00:24:28.651Z,10.52
2024-05-09T00:27:31.036Z,10.31
2024-05-09T00:30:36.135Z,10.28
2024-05-09T00:33:39.806Z,10.37
2024-05-09T00:36:42.250Z,10.32
2024-05-09T00:39:47.496Z,10.31
2024-05-09T00:42:49.988Z,10.31
2024-05-09T00:45:53.740Z,10.31
2024-05-09T00:48:56.503Z,10.38
2024-05-09T00:51:59.786Z,10.41
2024-05-09T00:55:08.235Z,10.32
2024-05-09T00:58:13.097Z,10.41
2024-05-09T01:01:20.789Z,10.38
2024-05-09T01:04:23.296Z,10.30
2024-05-09T01:07:26.465Z,10.23
2024-05-09T01:10:34.899Z,10.08
2024-05-09T01:13:40.316Z,10.13
2024-05-09T01:16:42.929Z,10.10
2024-05-09T01:19:45.945Z,10.11
2024-05-09T01:22:48.487Z,10.04
2024-05-09T01:25:53.534Z,9.92
2024-05-09T01:28:56.023Z,9.91
2024-05-09T01:31:59.866Z,10.00
2024-05-09T01:35:02.496Z,10.01
2024-05-09T01:38:05.725Z,10.01
2024-05-09T01:41:10.991Z,9.86
2024-05-09T01:44:13.611Z,9.79
2024-05-09T01:47:16.420Z,9.81
2024-05-09T01:50:25.311Z,9.79
2024-05-09T01:53:35.952Z,9.80
2024-05-09T01:56:41.079Z,9.82
2024-05-09T01:59:43.507Z,9.67
2024-05-09T02:02:46.574Z,9.73
2024-05-09T02:05:50.174Z,9.66
2024-05-09T02:08:52.813Z,9.53
2024-05-09T02:11:57.815Z,9.58
2024-05-09T02:15:00.352Z,9.47
2024-05-09T02:18:02.872Z,9.40
2024-05-09T02:21:05.929Z,9.38
2024-05-09T02:24:08.259Z,9.33
2024-05-09T02:27:13.305Z,9.35
2024-05-09T02:30:22.847Z,9.33
2024-05-09T02:33:34.111Z,9.22
2024-05-09T02:36:36.491Z,9.30
2024-05-09T02:39:38.919Z,9.25
2024-05-09T02:42:43.891Z,9.30
2024-05-09T02:45:46.405Z,9.24
2024-05-09T02:48:48.839Z,9.08
2024-05-09T02:51:51.351Z,9.00
2024-05-09T02:54:53.926Z,9.06
2024-05-09T02:57:58.970Z,8.99
2024-05-09T03:01:02.007Z,8.95
2024-05-09T03:04:04.718Z,9.09
2024-05-09T03:07:08.560Z,9.19
2024-05-09T03:10:18.336Z,9.29
2024-05-09T03:13:27.591Z,9.28
2024-05-09T03:16:30.074Z,9.09
2024-05-09T03:19:32.552Z,8.94
2024-05-09T03:22:35.073Z,8.83
2024-05-09T03:25:37.661Z,8.81
2024-05-09T03:28:42.817Z,8.82
2024-05-09T03:31:45.331Z,8.83
2024-05-09T03:34:48.046Z,8.78
2024-05-09T03:37:50.432Z,8.87
2024-05-09T03:40:53.188Z,8.98
2024-05-09T03:43:58.536Z,9.09
2024-05-09T03:47:01.089Z,9.14
2024-05-09T03:50:05.620Z,9.09
2024-05-09T03:53:11.191Z,9.00
2024-05-09T03:56:13.888Z,9.03
2024-05-09T03:59:19.298Z,9.15
2024-05-09T04:02:22.026Z,9.25
2024-05-09T04:05:25.669Z,9.37
2024-05-09T04:08:28.776Z,9.38
2024-05-09T04:11:31.423Z,9.29
2024-05-09T04:14:36.616Z,9.31
2024-05-09T04:17:39.312Z,9.20
2024-05-09T04:20:41.987Z,9.07
2024-05-09T04:23:44.540Z,9.14
2024-05-09T04:26:46.956Z,9.10
2024-05-09T04:29:51.956Z,8.97
2024-05-09T04:32:54.732Z,9.05
2024-05-09T04:35:57.172Z,9.18
2024-05-09T04:38:59.600Z,9.26
2024-05-09T04:42:01.987Z,9.33
2024-05-09T04:45:07.796Z,9.47
2024-05-09T04:48:10.974Z,9.59
2024-05-09T04:51:13.716Z,9.80
2024-05-09T04:54:26.324Z,9.87
2024-05-09T04:57:36.423Z,10.01
2024-05-09T05:00:41.904Z,10.20
2024-05-09T05:03:44.793Z,10.37
2024-05-09T05:06:47.288Z,10.53
2024-05-09T05:09:49.772Z,10.63
2024-05-09T05:13:11.305Z,10.66
2024-05-09T05:16:17.302Z,10.73
2024-05-09T05:19:19.868Z,10.81
2024-05-09T05:22:22.596Z,10.83
2024-05-09T05:25:26.867Z,10.97
2024-05-09T05:28:29.382Z,11.03
2024-05-09T05:31:34.485Z,11.08
2024-05-09T05:34:36.910Z,11.16
2024-05-09T05:37:39.351Z,11.25
2024-05-09T05:40:42.123Z,11.35
2024-05-09T05:43:44.564Z,11.41
2024-05-09T05:46:50.885Z,11.51
2024-05-09T05:49:55.391Z,11.61
2024-05-09T05:52:57.882Z,11.76
2024-05-09T05:56:00.475Z,11.87
2024-05-09T05:59:02.946Z,12.10
2024-05-09T06:02:09.646Z,12.20
2024-05-09T06:05:12.333Z,12.36
2024-05-09T06:08:15.263Z,12.52
2024-05-09T06:11:17.971Z,12.71
2024-05-09T06:14:20.770Z,12.81
2024-05-09T06:17:26.168Z,12.96
2024-05-09T06:20:35.577Z,13.03
2024-05-09T06:23:46.177Z,13.22
2024-05-09T06:26:48.565Z,13.31
2024-05-09T06:29:51.090Z,13.51
2024-05-09T06:32:56.289Z,13.66
2024-05-09T06:35:59.649Z,13.81
2024-05-09T06:39:02.246Z,13.72
2024-05-09T06:42:05.030Z,13.72
2024-05-09T06:45:07.794Z,13.70
2024-05-09T06:48:15.775Z,13.83
2024-05-09T06:51:21.754Z,13.75
2024-05-09T06:54:24.322Z,13.98
2024-05-09T06:57:30.029Z,14.06
2024-05-09T07:00:38.776Z,14.21
2024-05-09T07:03:46.446Z,14.39
2024-05-09T07:06:48.867Z,14.53
2024-05-09T07:09:51.383Z,14.56
2024-05-09T07:12:53.851Z,14.64
2024-05-09T07:15:56.439Z,14.65
2024-05-09T07:19:01.795Z,14.96
2024-05-09T07:22:04.750Z,15.01
2024-05-09T07:25:07.507Z,15.22
2024-05-09T07:28:11.828Z,15.36
2024-05-09T07:31:15.168Z,15.40
2024-05-09T07:34:20.692Z,15.48
2024-05-09T07:37:23.386Z,15.69
2024-05-09T07:40:33.102Z,15.75
2024-05-09T07:43:38.792Z,15.92
2024-05-09T07:51:32.799Z,16.06
2024-05-09T07:53:37.597Z,15.95
2024-05-09T07:56:37.088Z,16.03
2024-05-09T07:59:39.587Z,16.08
2024-05-09T08:02:42.213Z,16.07
2024-05-09T08:05:47.260Z,16.34
2024-05-09T08:08:49.790Z,16.46
2024-05-09T08:11:52.896Z,16.64
2024-05-09T08:14:56.447Z,16.60
2024-05-09T08:17:59.555Z,16.66
2024-05-09T08:21:05.112Z,16.52
2024-05-09T08:24:07.562Z,16.71
2024-05-09T08:27:10.119Z,16.84
2024-05-09T08:30:21.346Z,16.98
2024-05-09T08:33:27.784Z,17.06
2024-05-09T08:36:32.933Z,17.06
2024-05-09T08:39:35.362Z,16.99
2024-05-09T08:42:45.452Z,17.03
2024-05-09T08:45:50.234Z,17.19
2024-05-09T08:48:55.934Z,17.30
2024-05-09T08:52:01.238Z,17.14
2024-05-09T08:55:04.154Z,17.15
2024-05-09T08:58:08.033Z,17.04
2024-05-09T09:01:13.195Z,17.10
2024-05-09T09:04:17.614Z,17.24
2024-05-09T09:07:23.214Z,17.60
2024-05-09T09:10:31.982Z,17.72
2024-05-09T09:13:35.675Z,17.83
2024-05-09T09:16:41.206Z,18.07
2024-05-09T09:19:44.475Z,18.02
2024-05-09T09:22:50.708Z,17.99
2024-05-09T09:25:59.546Z,17.71
2024-05-09T09:29:05.515Z,17.58
2024-05-09T09:32:13.063Z,17.39
2024-05-09T09:35:15.636Z,17.35
2024-05-09T09:38:23.963Z,17.89
2024-05-09T09:41:30.850Z,18.03
2024-05-09T09:44:34.240Z,17.85
2024-05-09T09:47:41.509Z,17.37
2024-05-09T09:50:45.961Z,16.78
2024-05-09T09:53:53.446Z,16.93
2024-05-09T09:56:57.055Z,17.65
2024-05-09T10:00:00.368Z,17.92
2024-05-09T10:03:03.245Z,18.36
2024-05-09T10:06:07.513Z,18.45
2024-05-09T10:09:16.512Z,18.44
2024-05-09T10:12:21.644Z,18.52
2024-05-09T10:15:26.714Z,18.36
2024-05-09T10:18:37.107Z,18.18
2024-05-09T10:21:47.401Z,18.76
2024-05-09T10:24:54.283Z,19.03
2024-05-09T10:27:56.985Z,19.32
2024-05-09T10:31:04.038Z,19.41
2024-05-09T10:34:06.825Z,19.49
2024-05-09T10:37:10.700Z,19.34
2024-05-09T10:40:26.585Z,19.33
2024-05-09T10:43:34.575Z,19.31
2024-05-09T10:46:37.425Z,19.30
2024-05-09T10:49:40.301Z,19.40
2024-05-09T10:52:42.929Z,18.75
2024-05-09T10:55:58.392Z,18.70
2024-05-09T10:59:04.221Z,19.23
2024-05-09T11:02:08.108Z,19.31
2024-05-09T11:05:11.225Z,19.24
2024-05-09T11:08:14.180Z,19.38
2024-05-09T11:11:19.695Z,19.11
2024-05-09T11:14:22.359Z,19.45
2024-05-09T11:17:25.359Z,19.70
2024-05-09T11:20:35.571Z,19.42
2024-05-09T11:23:38.826Z,18.96
2024-05-09T11:26:44.073Z,18.81
2024-05-09T11:29:47.578Z,18.27
2024-05-09T11:32:50.212Z,18.09
2024-05-09T11:35:55.020Z,17.85
2024-05-09T11:39:00.429Z,18.16
2024-05-09T11:42:06.372Z,18.90
2024-05-09T11:45:09.281Z,19.41
2024-05-09T11:48:12.027Z,19.76
2024-05-09T11:51:14.769Z,19.96
2024-05-09T11:54:17.522Z,19.84
2024-05-09T11:57:24.553Z,20.47
2024-05-09T12:00:34.112Z,19.95
2024-05-09T12:03:40.029Z,19.07
2024-05-09T12:06:42.779Z,18.41
2024-05-09T12:09:45.514Z,19.49
2024-05-09T12:12:50.803Z,20.61
2024-05-09T12:15:54.469Z,20.41
2024-05-09T12:18:57.185Z,20.89
2024-05-09T12:22:00.056Z,21.63
2024-05-09T12:25:04.944Z,21.20
2024-05-09T12:28:10.580Z,20.90
2024-05-09T12:31:13.308Z,21.30
2024-05-09T12:34:16.412Z,21.85
2024-05-09T12:37:19.493Z,20.84
2024-05-09T12:40:30.754Z,19.74
2024-05-09T12:43:40.149Z,20.16
2024-05-09T12:46:42.815Z,20.84
2024-05-09T12:49:45.529Z,21.09
2024-05-09T12:52:48.069Z,20.99
2024-05-09T12:55:56.849Z,20.22
2024-05-09T12:59:05.366Z,19.29
2024-05-09T13:02:09.764Z,18.87
2024-05-09T13:05:14.361Z,18.54
2024-05-09T13:08:17.213Z,18.82
2024-05-09T13:11:19.856Z,19.86
2024-05-09T13:14:25.079Z,20.46
2024-05-09T13:17:27.830Z,20.54
2024-05-09T13:20:33.870Z,20.84
2024-05-09T13:23:38.148Z,20.92
2024-05-09T13:26:40.826Z,21.18
2024-05-09T13:29:46.101Z,20.81
2024-05-09T13:32:49.153Z,19.94
2024-05-09T13:35:51.855Z,19.55
2024-05-09T13:38:56.656Z,19.09
2024-05-09T13:41:59.183Z,18.87
2024-05-09T13:45:06.922Z,18.81
2024-05-09T13:48:12.278Z,18.59
2024-05-09T13:51:14.997Z,18.58
2024-05-09T13:54:22.345Z,19.79
2024-05-09T13:57:25.454Z,20.64
2024-05-09T14:00:42.402Z,20.99
2024-05-09T14:03:49.921Z,20.15
2024-05-09T14:06:53.238Z,19.81
2024-05-09T14:09:55.901Z,20.23
2024-05-09T14:12:58.579Z,20.60
2024-05-09T14:16:04.068Z,20.81
2024-05-09T14:19:06.768Z,21.27
2024-05-09T14:22:09.539Z,21.04
2024-05-09T14:25:14.982Z,21.36
2024-05-09T14:28:18.571Z,21.31
2024-05-09T14:31:23.793Z,20.61
2024-05-09T14:34:27.274Z,20.17
2024-05-09T14:37:30.060Z,21.14
2024-05-09T14:43:39.291Z,20.88
2024-05-09T14:46:44.604Z,20.78
2024-05-09T14:49:47.150Z,21.37
2024-05-09T14:52:49.908Z,21.78
2024-05-09T14:55:52.391Z,21.55
2024-05-09T14:58:57.126Z,22.10
2024-05-09T15:02:02.528Z,22.32
2024-05-09T15:05:07.170Z,22.36
2024-05-09T15:08:09.820Z,22.74
2024-05-09T15:11:12.448Z,22.66
2024-05-09T15:14:15.985Z,22.08
2024-05-09T15:17:21.248Z,22.01
2024-05-09T15:20:31.454Z,21.80
2024-05-09T15:23:37.822Z,21.84
2024-05-09T15:26:40.379Z,21.95
2024-05-09T15:29:43.219Z,21.91
2024-05-09T15:32:48.435Z,21.29
2024-05-09T15:35:51.759Z,21.53
2024-05-09T15:38:55.697Z,21.27
2024-05-09T15:41:58.362Z,21.06
2024-05-09T15:45:01.051Z,21.18
2024-05-09T15:48:07.255Z,21.17
2024-05-09T15:51:09.995Z,21.66
2024-05-09T15:54:12.606Z,22.03
2024-05-09T15:57:15.362Z,21.51
2024-05-09T16:00:25.108Z,21.05
2024-05-09T16:03:39.268Z,21.01
2024-05-09T16:06:41.916Z,20.78
2024-05-09T16:09:44.534Z,21.01
2024-05-09T16:12:47.109Z,21.04
2024-05-09T16:15:52.071Z,21.04
2024-05-09T16:18:57.345Z,20.74
2024-05-09T16:22:00.419Z,20.51
2024-05-09T16:25:03.131Z,20.61
2024-05-09T16:28:09.884Z,20.56
2024-05-09T16:31:13.452Z,20.34
2024-05-09T16:34:18.892Z,20.30
2024-05-09T16:37:21.479Z,20.44
2024-05-09T16:40:33.077Z,20.00
2024-05-09T16:43:39.852Z,19.81
2024-05-09T16:46:43.466Z,19.58
2024-05-09T16:49:48.957Z,19.49
2024-05-09T16:52:51.447Z,19.38
2024-05-09T16:55:54.246Z,19.27
2024-05-09T16:58:56.819Z,18.95
2024-05-09T17:01:59.559Z,18.80
2024-05-09T17:05:06.458Z,19.10
2024-05-09T17:08:09.439Z,19.10
2024-05-09T17:11:13.334Z,19.06
2024-05-09T17:14:15.900Z,19.09
2024-05-09T17:17:19.157Z,18.94
2024-05-09T17:20:31.799Z,18.72
2024-05-09T17:23:40.199Z,18.67
2024-05-09T17:26:42.674Z,18.49
2024-05-09T17:29:47.984Z,18.39
2024-05-09T17:32:50.493Z,18.37
2024-05-09T17:35:55.606Z,18.26
2024-05-09T17:38:58.218Z,18.10
2024-05-09T17:42:06.506Z,18.02
2024-05-09T17:45:11.688Z,17.96
2024-05-09T17:48:14.432Z,17.85
2024-05-09T17:51:20.697Z,17.80
2024-05-09T17:54:23.300Z,17.66
2024-05-09T17:57:26.258Z,17.62
2024-05-09T18:00:37.020Z,17.54
2024-05-09T18:03:43.867Z,17.44
2024-05-09T18:06:48.996Z,17.38
2024-05-09T18:09:51.592Z,17.34
2024-05-09T18:12:54.143Z,17.25
2024-05-09T18:15:56.769Z,17.13
2024-05-09T18:19:00.109Z,17.08
2024-05-09T18:22:05.951Z,16.94
2024-05-09T18:25:08.529Z,16.94
2024-05-09T18:28:11.276Z,16.88
2024-05-09T18:31:15.775Z,16.81
2024-05-09T18:34:18.472Z,16.66
2024-05-09T18:37:24.331Z,16.68
2024-05-09T18:40:33.684Z,16.59
2024-05-09T18:43:44.917Z,16.59
2024-05-09T18:46:48.341Z,16.47
2024-05-09T18:49:51.075Z,16.43
2024-05-09T18:52:59.582Z,16.35
2024-05-09T18:56:02.110Z,16.36
2024-05-09T18:59:04.655Z,16.20
2024-05-09T19:02:07.472Z,16.27
2024-05-09T19:05:10.229Z,16.17
2024-05-09T19:08:15.853Z,16.10
2024-05-09T19:11:18.419Z,16.14
2024-05-09T19:14:20.904Z,16.04
2024-05-09T19:17:23.435Z,15.96
2024-05-09T19:20:31.958Z,15.91
2024-05-09T19:23:46.856Z,15.88
2024-05-09T19:26:53.262Z,15.87
2024-05-09T19:29:57.642Z,15.82
2024-05-09T19:33:00.461Z,15.78
2024-05-09T19:36:03.178Z,15.78
2024-05-09T19:39:08.224Z,15.75
2024-05-09T19:42:10.627Z,15.72
2024-05-09T19:45:13.293Z,15.65
2024-05-09T19:48:16.045Z,15.65
2024-05-09T19:51:18.469Z,15.58
2024-05-09T19:54:23.446Z,15.50
2024-05-09T19:57:25.903Z,15.48
2024-05-09T20:00:34.739Z,15.47
2024-05-09T20:03:38.616Z,15.41
2024-05-09T20:06:41.859Z,15.35
2024-05-09T20:09:46.853Z,15.36
2024-05-09T20:12:49.425Z,15.32
2024-05-09T20:15:51.987Z,15.26
2024-05-09T20:18:54.538Z,15.23
2024-05-09T20:21:59.288Z,15.20
2024-05-09T20:25:04.919Z,15.14
2024-05-09T20:28:08.008Z,15.18
2024-05-09T20:31:10.601Z,15.18
2024-05-09T20:34:13.079Z,15.13
2024-05-09T20:37:15.667Z,15.12
2024-05-09T20:40:28.691Z,15.10
2024-05-09T20:43:35.208Z,15.02
2024-05-09T20:46:37.555Z,14.90
2024-05-09T20:49:40.179Z,14.86
2024-05-09T20:52:42.642Z,14.75
2024-05-09T20:55:47.862Z,14.66
2024-05-09T20:58:50.336Z,14.54
2024-05-09T21:01:52.783Z,14.45
2024-05-09T21:04:55.473Z,14.36
2024-05-09T21:07:58.423Z,14.27
2024-05-09T21:11:03.432Z,14.20
2024-05-09T21:14:06.023Z,14.05
2024-05-09T21:17:08.640Z,13.96
2024-05-09T21:20:17.073Z,13.97
2024-05-09T21:23:22.794Z,13.92
2024-05-09T21:26:29.578Z,13.80
2024-05-09T21:29:32.051Z,13.74
2024-05-09T21:32:34.543Z,13.59
2024-05-09T21:35:37.170Z,13.47
2024-05-09T21:38:40.770Z,13.39
2024-05-09T21:41:45.867Z,13.33
2024-05-09T21:44:48.338Z,13.28
2024-05-09T21:47:50.924Z,13.21
2024-05-09T21:50:53.445Z,13.18
2024-05-09T21:53:58.346Z,13.17
2024-05-09T21:57:06.522Z,13.14
2024-05-09T22:00:27.916Z,13.15
2024-05-09T22:03:37.141Z,13.10
2024-05-09T22:06:39.708Z,12.95
2024-05-09T22:09:45.494Z,13.07
2024-05-09T22:12:50.659Z,13.10
2024-05-09T22:15:53.114Z,13.15
2024-05-09T22:18:55.711Z,13.12
2024-05-09T22:21:58.314Z,13.13
2024-05-09T22:25:01.303Z,13.13
2024-05-09T22:28:07.248Z,13.11
2024-05-09T22:31:09.808Z,12.99
2024-05-09T22:34:12.461Z,12.92
2024-05-09T22:37:14.899Z,12.86
2024-05-09T22:40:24.449Z,12.73
2024-05-09T22:43:38.260Z,12.72
2024-05-09T22:46:40.619Z,12.67
2024-05-09T22:49:43.003Z,12.57
2024-05-09T22:52:45.430Z,12.51
2024-05-09T22:55:47.849Z,12.45
2024-05-09T22:58:52.916Z,12.45
2024-05-09T23:01:55.485Z,12.48
2024-05-09T23:04:58.121Z,12.52
2024-05-09T23:08:01.142Z,12.51
2024-05-09T23:11:05.801Z,12.50
2024-05-09T23:14:11.123Z,12.57
2024-05-09T23:17:13.908Z,12.74
2024-05-09T23:20:22.091Z,12.59
2024-05-09T23:23:32.372Z,12.52
2024-05-09T23:26:34.884Z,12.45
2024-05-09T23:29:39.901Z,12.29
2024-05-09T23:32:42.329Z,12.37
2024-05-09T23:35:45.042Z,12.33
2024-05-09T23:38:47.518Z,12.20
2024-05-09T23:41:49.883Z,12.05
2024-05-09T23:44:55.039Z,12.16
2024-05-09T23:47:58.759Z,12.10
2024-05-09T23:51:01.260Z,11.99
2024-05-09T23:54:03.680Z,11.86
2024-05-09T23:57:06.280Z,11.70
